sensor_id;sensor_type;location;lat;lon;timestamp;temperature;humidity
41437;DHT22;27178;49.460;10.850;2023-04-15T00:00:55;11.10;72.70
41437;DHT22;27178;49.460;10.850;2023-04-15T00:03:24;11.10;73.60
41437;DHT22;27178;49.460;10.850;2023-04-15T00:05:54;11.10;72.70
41437;DHT22;27178;49.460;10.850;2023-04-15T00:08:22;11.10;72.70
41437;DHT22;27178;49.460;10.850;2023-04-15T00:10:52;11.00;72.70
41437;DHT22;27178;49.460;10.850;2023-04-15T00:13:20;11.10;72.80
41437;DHT22;27178;49.460;10.850;2023-04-15T00:15:49;11.00;72.80
41437;DHT22;27178;49.460;10.850;2023-04-15T00:18:18;11.00;72.70
41437;DHT22;27178;49.460;10.850;2023-04-15T00:20:46;11.00;72.70
41437;DHT22;27178;49.460;10.850;2023-04-15T00:23:16;11.00;72.70
41437;DHT22;27178;49.460;10.850;2023-04-15T00:25:44;11.00;72.90
41437;DHT22;27178;49.460;10.850;2023-04-15T00:28:13;11.00;72.80
41437;DHT22;27178;49.460;10.850;2023-04-15T00:30:42;11.00;72.80
41437;DHT22;27178;49.460;10.850;2023-04-15T00:33:10;11.00;72.90
41437;DHT22;27178;49.460;10.850;2023-04-15T00:35:39;11.00;72.90
41437;DHT22;27178;49.460;10.850;2023-04-15T00:38:07;11.00;72.90
41437;DHT22;27178;49.460;10.850;2023-04-15T00:40:37;11.00;72.80
41437;DHT22;27178;49.460;10.850;2023-04-15T00:43:05;11.00;72.90
41437;DHT22;27178;49.460;10.850;2023-04-15T00:45:34;11.00;72.90
41437;DHT22;27178;49.460;10.850;2023-04-15T00:48:03;11.00;72.90
41437;DHT22;27178;49.460;10.850;2023-04-15T00:50:32;11.00;72.90
41437;DHT22;27178;49.460;10.850;2023-04-15T00:53:01;11.00;72.90
41437;DHT22;27178;49.460;10.850;2023-04-15T00:55:29;11.00;72.90
41437;DHT22;27178;49.460;10.850;2023-04-15T00:57:59;11.00;72.90
41437;DHT22;27178;49.460;10.850;2023-04-15T01:00:27;11.00;72.90
41437;DHT22;27178;49.460;10.850;2023-04-15T01:02:56;11.00;72.90
41437;DHT22;27178;49.460;10.850;2023-04-15T01:05:25;11.00;72.80
41437;DHT22;27178;49.460;10.850;2023-04-15T01:07:54;11.00;72.80
41437;DHT22;27178;49.460;10.850;2023-04-15T01:10:23;11.00;72.80
41437;DHT22;27178;49.460;10.850;2023-04-15T01:12:51;11.00;72.80
41437;DHT22;27178;49.460;10.850;2023-04-15T01:15:21;11.00;72.80
41437;DHT22;27178;49.460;10.850;2023-04-15T01:17:50;11.00;72.90
41437;DHT22;27178;49.460;10.850;2023-04-15T01:20:19;11.00;72.80
41437;DHT22;27178;49.460;10.850;2023-04-15T01:22:48;11.00;72.70
41437;DHT22;27178;49.460;10.850;2023-04-15T01:25:18;11.00;72.70
41437;DHT22;27178;49.460;10.850;2023-04-15T01:27:48;11.00;72.70
41437;DHT22;27178;49.460;10.850;2023-04-15T01:30:17;11.00;72.60
41437;DHT22;27178;49.460;10.850;2023-04-15T01:32:46;11.00;72.60
41437;DHT22;27178;49.460;10.850;2023-04-15T01:35:15;11.00;72.60
41437;DHT22;27178;49.460;10.850;2023-04-15T01:37:44;11.00;72.70
41437;DHT22;27178;49.460;10.850;2023-04-15T01:40:12;11.00;72.70
41437;DHT22;27178;49.460;10.850;2023-04-15T01:42:41;11.00;72.70
41437;DHT22;27178;49.460;10.850;2023-04-15T01:45:11;11.00;72.70
41437;DHT22;27178;49.460;10.850;2023-04-15T01:47:39;11.00;72.70
41437;DHT22;27178;49.460;10.850;2023-04-15T01:50:09;11.00;72.70
41437;DHT22;27178;49.460;10.850;2023-04-15T01:52:37;10.90;72.60
41437;DHT22;27178;49.460;10.850;2023-04-15T01:55:06;10.90;72.60
41437;DHT22;27178;49.460;10.850;2023-04-15T01:57:35;10.90;72.70
41437;DHT22;27178;49.460;10.850;2023-04-15T02:00:05;10.90;72.60
41437;DHT22;27178;49.460;10.850;2023-04-15T02:02:35;10.90;72.70
41437;DHT22;27178;49.460;10.850;2023-04-15T02:05:05;10.90;72.60
41437;DHT22;27178;49.460;10.850;2023-04-15T02:07:33;10.90;72.60
41437;DHT22;27178;49.460;10.850;2023-04-15T02:10:02;10.90;72.60
41437;DHT22;27178;49.460;10.850;2023-04-15T02:12:30;10.90;73.50
41437;DHT22;27178;49.460;10.850;2023-04-15T02:14:58;10.90;72.70
41437;DHT22;27178;49.460;10.850;2023-04-15T02:17:27;10.90;72.70
41437;DHT22;27178;49.460;10.850;2023-04-15T02:19:57;10.90;72.70
41437;DHT22;27178;49.460;10.850;2023-04-15T02:22:25;10.90;72.70
41437;DHT22;27178;49.460;10.850;2023-04-15T02:24:55;10.90;72.70
41437;DHT22;27178;49.460;10.850;2023-04-15T02:27:23;10.90;72.70
41437;DHT22;27178;49.460;10.850;2023-04-15T02:29:52;10.90;72.70
41437;DHT22;27178;49.460;10.850;2023-04-15T02:32:20;10.90;72.70
41437;DHT22;27178;49.460;10.850;2023-04-15T02:34:50;10.80;72.70
41437;DHT22;27178;49.460;10.850;2023-04-15T02:37:19;10.80;72.70
41437;DHT22;27178;49.460;10.850;2023-04-15T02:39:47;10.80;72.80
41437;DHT22;27178;49.460;10.850;2023-04-15T02:42:16;10.80;72.90
41437;DHT22;27178;49.460;10.850;2023-04-15T02:44:44;10.80;72.80
41437;DHT22;27178;49.460;10.850;2023-04-15T02:47:12;10.80;72.80
41437;DHT22;27178;49.460;10.850;2023-04-15T02:49:41;10.80;72.80
41437;DHT22;27178;49.460;10.850;2023-04-15T02:52:10;10.80;72.80
41437;DHT22;27178;49.460;10.850;2023-04-15T02:54:39;10.80;72.80
41437;DHT22;27178;49.460;10.850;2023-04-15T02:57:08;10.80;72.90
41437;DHT22;27178;49.460;10.850;2023-04-15T02:59:37;10.80;72.90
41437;DHT22;27178;49.460;10.850;2023-04-15T03:02:06;10.80;72.90
41437;DHT22;27178;49.460;10.850;2023-04-15T03:04:35;10.80;72.90
41437;DHT22;27178;49.460;10.850;2023-04-15T03:07:03;10.80;72.90
41437;DHT22;27178;49.460;10.850;2023-04-15T03:09:32;10.80;72.90
41437;DHT22;27178;49.460;10.850;2023-04-15T03:12:02;10.80;72.90
41437;DHT22;27178;49.460;10.850;2023-04-15T03:14:30;10.70;72.90
41437;DHT22;27178;49.460;10.850;2023-04-15T03:16:58;10.70;72.90
41437;DHT22;27178;49.460;10.850;2023-04-15T03:19:27;10.70;72.90
41437;DHT22;27178;49.460;10.850;2023-04-15T03:21:55;10.70;72.90
41437;DHT22;27178;49.460;10.850;2023-04-15T03:24:23;10.70;72.90
41437;DHT22;27178;49.460;10.850;2023-04-15T03:26:52;10.70;73.00
41437;DHT22;27178;49.460;10.850;2023-04-15T03:29:22;10.70;73.00
41437;DHT22;27178;49.460;10.850;2023-04-15T03:31:51;10.70;73.20
41437;DHT22;27178;49.460;10.850;2023-04-15T03:34:19;10.70;73.20
41437;DHT22;27178;49.460;10.850;2023-04-15T03:36:48;10.70;73.20
41437;DHT22;27178;49.460;10.850;2023-04-15T03:39:16;10.70;73.20
41437;DHT22;27178;49.460;10.850;2023-04-15T03:41:45;10.70;73.20
41437;DHT22;27178;49.460;10.850;2023-04-15T03:44:13;10.70;73.30
41437;DHT22;27178;49.460;10.850;2023-04-15T03:46:43;10.70;73.30
41437;DHT22;27178;49.460;10.850;2023-04-15T03:49:13;10.70;73.40
41437;DHT22;27178;49.460;10.850;2023-04-15T03:51:42;10.70;73.40
41437;DHT22;27178;49.460;10.850;2023-04-15T03:54:10;10.70;73.40
41437;DHT22;27178;49.460;10.850;2023-04-15T03:56:39;10.70;73.40
41437;DHT22;27178;49.460;10.850;2023-04-15T03:59:07;10.70;73.40
41437;DHT22;27178;49.460;10.850;2023-04-15T04:01:36;10.70;74.30
41437;DHT22;27178;49.460;10.850;2023-04-15T04:04:06;10.70;73.50
41437;DHT22;27178;49.460;10.850;2023-04-15T04:06:34;10.70;73.50
41437;DHT22;27178;49.460;10.850;2023-04-15T04:09:02;10.70;73.40
41437;DHT22;27178;49.460;10.850;2023-04-15T04:11:31;10.70;73.20
41437;DHT22;27178;49.460;10.850;2023-04-15T04:13:59;10.70;73.20
41437;DHT22;27178;49.460;10.850;2023-04-15T04:16:27;10.70;73.20
41437;DHT22;27178;49.460;10.850;2023-04-15T04:18:56;11.40;73.70
41437;DHT22;27178;49.460;10.850;2023-04-15T04:21:26;10.70;73.20
41437;DHT22;27178;49.460;10.850;2023-04-15T04:23:54;10.70;73.30
41437;DHT22;27178;49.460;10.850;2023-04-15T04:26:23;10.70;73.40
41437;DHT22;27178;49.460;10.850;2023-04-15T04:28:51;10.60;73.40
41437;DHT22;27178;49.460;10.850;2023-04-15T04:31:19;10.60;73.50
41437;DHT22;27178;49.460;10.850;2023-04-15T04:33:48;10.60;73.50
41437;DHT22;27178;49.460;10.850;2023-04-15T04:36:16;10.60;73.60
41437;DHT22;27178;49.460;10.850;2023-04-15T04:38:46;10.60;73.60
41437;DHT22;27178;49.460;10.850;2023-04-15T04:41:14;10.60;73.70
41437;DHT22;27178;49.460;10.850;2023-04-15T04:43:42;10.70;73.80
41437;DHT22;27178;49.460;10.850;2023-04-15T04:46:10;10.60;73.70
41437;DHT22;27178;49.460;10.850;2023-04-15T04:48:39;10.60;73.80
41437;DHT22;27178;49.460;10.850;2023-04-15T04:51:08;10.60;73.80
41437;DHT22;27178;49.460;10.850;2023-04-15T04:53:36;10.60;73.70
41437;DHT22;27178;49.460;10.850;2023-04-15T04:56:06;10.60;73.60
41437;DHT22;27178;49.460;10.850;2023-04-15T04:58:34;10.60;73.70
41437;DHT22;27178;49.460;10.850;2023-04-15T05:01:03;10.60;73.70
41437;DHT22;27178;49.460;10.850;2023-04-15T05:03:31;10.60;73.80
41437;DHT22;27178;49.460;10.850;2023-04-15T05:06:00;10.60;73.80
41437;DHT22;27178;49.460;10.850;2023-04-15T05:08:29;10.70;73.90
41437;DHT22;27178;49.460;10.850;2023-04-15T05:10:57;10.60;73.80
41437;DHT22;27178;49.460;10.850;2023-04-15T05:13:28;10.60;73.80
41437;DHT22;27178;49.460;10.850;2023-04-15T05:15:56;10.70;73.90
41437;DHT22;27178;49.460;10.850;2023-04-15T05:18:25;10.70;73.90
41437;DHT22;27178;49.460;10.850;2023-04-15T05:20:53;10.70;73.90
41437;DHT22;27178;49.460;10.850;2023-04-15T05:23:22;10.70;73.90
41437;DHT22;27178;49.460;10.850;2023-04-15T05:25:50;10.70;74.00
41437;DHT22;27178;49.460;10.850;2023-04-15T05:28:18;10.70;73.90
41437;DHT22;27178;49.460;10.850;2023-04-15T05:30:48;10.70;73.90
41437;DHT22;27178;49.460;10.850;2023-04-15T05:33:17;10.70;73.90
41437;DHT22;27178;49.460;10.850;2023-04-15T05:35:45;10.70;73.90
41437;DHT22;27178;49.460;10.850;2023-04-15T05:38:14;10.70;73.90
41437;DHT22;27178;49.460;10.850;2023-04-15T05:40:42;10.80;73.90
41437;DHT22;27178;49.460;10.850;2023-04-15T05:43:10;10.70;73.90
41437;DHT22;27178;49.460;10.850;2023-04-15T05:45:39;10.70;73.90
41437;DHT22;27178;49.460;10.850;2023-04-15T05:48:08;10.70;73.80
41437;DHT22;27178;49.460;10.850;2023-04-15T05:50:36;10.70;73.70
41437;DHT22;27178;49.460;10.850;2023-04-15T05:53:08;10.70;73.80
41437;DHT22;27178;49.460;10.850;2023-04-15T05:55:36;10.80;73.80
41437;DHT22;27178;49.460;10.850;2023-04-15T05:58:04;10.80;73.80
41437;DHT22;27178;49.460;10.850;2023-04-15T06:00:33;10.80;73.80
41437;DHT22;27178;49.460;10.850;2023-04-15T06:03:02;10.80;73.90
41437;DHT22;27178;49.460;10.850;2023-04-15T06:05:33;10.80;74.00
41437;DHT22;27178;49.460;10.850;2023-04-15T06:08:02;10.80;74.00
41437;DHT22;27178;49.460;10.850;2023-04-15T06:10:31;10.80;74.00
41437;DHT22;27178;49.460;10.850;2023-04-15T06:13:02;10.90;74.10
41437;DHT22;27178;49.460;10.850;2023-04-15T06:15:31;10.90;74.10
41437;DHT22;27178;49.460;10.850;2023-04-15T06:17:59;10.90;74.00
41437;DHT22;27178;49.460;10.850;2023-04-15T06:20:28;10.90;73.80
41437;DHT22;27178;49.460;10.850;2023-04-15T06:22:58;11.00;73.80
41437;DHT22;27178;49.460;10.850;2023-04-15T06:25:26;11.00;73.80
41437;DHT22;27178;49.460;10.850;2023-04-15T06:27:54;11.00;73.80
41437;DHT22;27178;49.460;10.850;2023-04-15T06:30:22;11.00;73.80
41437;DHT22;27178;49.460;10.850;2023-04-15T06:32:51;11.00;73.80
41437;DHT22;27178;49.460;10.850;2023-04-15T06:35:20;11.10;73.80
41437;DHT22;27178;49.460;10.850;2023-04-15T06:37:49;11.10;73.80
41437;DHT22;27178;49.460;10.850;2023-04-15T06:40:18;11.10;73.80
41437;DHT22;27178;49.460;10.850;2023-04-15T06:42:47;11.10;73.80
41437;DHT22;27178;49.460;10.850;2023-04-15T06:45:16;11.20;73.80
41437;DHT22;27178;49.460;10.850;2023-04-15T06:47:44;12.80;74.80
41437;DHT22;27178;49.460;10.850;2023-04-15T06:50:13;11.20;73.80
41437;DHT22;27178;49.460;10.850;2023-04-15T06:52:41;11.30;73.80
41437;DHT22;27178;49.460;10.850;2023-04-15T06:55:09;11.30;73.80
41437;DHT22;27178;49.460;10.850;2023-04-15T06:57:39;11.30;73.70
41437;DHT22;27178;49.460;10.850;2023-04-15T07:00:08;11.40;73.80
41437;DHT22;27178;49.460;10.850;2023-04-15T07:02:37;11.50;73.70
41437;DHT22;27178;49.460;10.850;2023-04-15T07:05:07;11.50;73.70
41437;DHT22;27178;49.460;10.850;2023-04-15T07:07:35;11.50;73.70
41437;DHT22;27178;49.460;10.850;2023-04-15T07:10:05;11.50;73.60
41437;DHT22;27178;49.460;10.850;2023-04-15T07:12:33;11.50;74.50
41437;DHT22;27178;49.460;10.850;2023-04-15T07:15:05;11.50;73.50
41437;DHT22;27178;49.460;10.850;2023-04-15T07:17:33;11.60;73.50
41437;DHT22;27178;49.460;10.850;2023-04-15T07:20:02;11.60;73.40
41437;DHT22;27178;49.460;10.850;2023-04-15T07:22:31;11.60;73.40
41437;DHT22;27178;49.460;10.850;2023-04-15T07:24:59;11.60;73.30
41437;DHT22;27178;49.460;10.850;2023-04-15T07:27:28;11.60;73.30
41437;DHT22;27178;49.460;10.850;2023-04-15T07:29:57;11.60;73.30
41437;DHT22;27178;49.460;10.850;2023-04-15T07:32:27;11.70;73.40
41437;DHT22;27178;49.460;10.850;2023-04-15T07:34:55;11.70;73.30
41437;DHT22;27178;49.460;10.850;2023-04-15T07:37:24;11.70;73.40
41437;DHT22;27178;49.460;10.850;2023-04-15T07:39:52;11.70;73.40
41437;DHT22;27178;49.460;10.850;2023-04-15T07:42:20;11.70;73.40
41437;DHT22;27178;49.460;10.850;2023-04-15T07:44:49;11.80;73.50
41437;DHT22;27178;49.460;10.850;2023-04-15T07:47:17;11.80;73.50
41437;DHT22;27178;49.460;10.850;2023-04-15T07:49:47;11.80;73.30
41437;DHT22;27178;49.460;10.850;2023-04-15T07:52:17;11.90;73.30
41437;DHT22;27178;49.460;10.850;2023-04-15T07:54:46;11.90;73.20
41437;DHT22;27178;49.460;10.850;2023-04-15T07:57:14;12.00;73.20
41437;DHT22;27178;49.460;10.850;2023-04-15T07:59:42;12.00;73.10
41437;DHT22;27178;49.460;10.850;2023-04-15T08:02:11;12.00;73.10
41437;DHT22;27178;49.460;10.850;2023-04-15T08:04:39;12.10;73.10
41437;DHT22;27178;49.460;10.850;2023-04-15T08:07:10;12.10;72.90
41437;DHT22;27178;49.460;10.850;2023-04-15T08:09:38;12.20;72.70
41437;DHT22;27178;49.460;10.850;2023-04-15T08:12:06;12.20;72.50
41437;DHT22;27178;49.460;10.850;2023-04-15T08:14:38;12.20;72.40
41437;DHT22;27178;49.460;10.850;2023-04-15T08:17:06;12.30;72.20
41437;DHT22;27178;49.460;10.850;2023-04-15T08:19:35;12.30;72.10
41437;DHT22;27178;49.460;10.850;2023-04-15T08:22:03;12.30;71.90
41437;DHT22;27178;49.460;10.850;2023-04-15T08:24:37;12.40;72.00
41437;DHT22;27178;49.460;10.850;2023-04-15T08:27:05;12.40;72.00
41437;DHT22;27178;49.460;10.850;2023-04-15T08:29:35;12.40;71.80
41437;DHT22;27178;49.460;10.850;2023-04-15T08:32:03;12.50;71.80
41437;DHT22;27178;49.460;10.850;2023-04-15T08:34:32;12.50;71.80
41437;DHT22;27178;49.460;10.850;2023-04-15T08:37:00;12.60;71.70
41437;DHT22;27178;49.460;10.850;2023-04-15T08:39:29;12.60;71.60
41437;DHT22;27178;49.460;10.850;2023-04-15T08:42:00;12.60;71.50
41437;DHT22;27178;49.460;10.850;2023-04-15T08:44:29;12.60;71.60
41437;DHT22;27178;49.460;10.850;2023-04-15T08:47:00;12.70;71.70
41437;DHT22;27178;49.460;10.850;2023-04-15T08:49:29;12.70;71.70
41437;DHT22;27178;49.460;10.850;2023-04-15T08:51:59;12.70;71.90
41437;DHT22;27178;49.460;10.850;2023-04-15T08:54:27;12.70;72.00
41437;DHT22;27178;49.460;10.850;2023-04-15T08:56:58;12.70;72.00
41437;DHT22;27178;49.460;10.850;2023-04-15T08:59:29;12.80;72.10
41437;DHT22;27178;49.460;10.850;2023-04-15T09:01:58;12.80;72.10
41437;DHT22;27178;49.460;10.850;2023-04-15T09:04:27;12.80;72.10
41437;DHT22;27178;49.460;10.850;2023-04-15T09:06:55;12.80;71.90
41437;DHT22;27178;49.460;10.850;2023-04-15T09:09:24;12.80;71.90
41437;DHT22;27178;49.460;10.850;2023-04-15T09:11:53;12.80;71.90
41437;DHT22;27178;49.460;10.850;2023-04-15T09:14:23;12.80;71.90
41437;DHT22;27178;49.460;10.850;2023-04-15T09:16:58;12.80;71.70
41437;DHT22;27178;49.460;10.850;2023-04-15T09:19:26;12.80;71.50
41437;DHT22;27178;49.460;10.850;2023-04-15T09:21:56;12.80;71.30
41437;DHT22;27178;49.460;10.850;2023-04-15T09:24:34;12.80;71.10
41437;DHT22;27178;49.460;10.850;2023-04-15T09:27:04;12.80;71.00
41437;DHT22;27178;49.460;10.850;2023-04-15T09:29:34;12.80;70.90
41437;DHT22;27178;49.460;10.850;2023-04-15T09:32:10;12.80;70.70
41437;DHT22;27178;49.460;10.850;2023-04-15T09:34:39;12.70;70.50
41437;DHT22;27178;49.460;10.850;2023-04-15T09:37:08;12.70;70.50
41437;DHT22;27178;49.460;10.850;2023-04-15T09:39:57;12.70;70.30
41437;DHT22;27178;49.460;10.850;2023-04-15T09:42:25;12.70;70.10
41437;DHT22;27178;49.460;10.850;2023-04-15T09:44:55;12.70;69.80
41437;DHT22;27178;49.460;10.850;2023-04-15T09:47:35;12.60;69.50
41437;DHT22;27178;49.460;10.850;2023-04-15T09:50:04;12.60;69.50
41437;DHT22;27178;49.460;10.850;2023-04-15T09:52:33;12.60;69.60
41437;DHT22;27178;49.460;10.850;2023-04-15T09:55:02;12.50;69.70
41437;DHT22;27178;49.460;10.850;2023-04-15T09:57:34;12.50;69.80
41437;DHT22;27178;49.460;10.850;2023-04-15T10:00:06;12.50;69.80
41437;DHT22;27178;49.460;10.850;2023-04-15T10:02:38;12.50;69.90
41437;DHT22;27178;49.460;10.850;2023-04-15T10:05:08;12.50;70.00
41437;DHT22;27178;49.460;10.850;2023-04-15T10:07:38;12.50;70.90
41437;DHT22;27178;49.460;10.850;2023-04-15T10:10:09;12.50;70.00
41437;DHT22;27178;49.460;10.850;2023-04-15T10:12:40;12.50;70.10
41437;DHT22;27178;49.460;10.850;2023-04-15T10:15:14;12.50;70.20
41437;DHT22;27178;49.460;10.850;2023-04-15T10:17:44;13.10;70.80
41437;DHT22;27178;49.460;10.850;2023-04-15T10:20:12;12.50;70.50
41437;DHT22;27178;49.460;10.850;2023-04-15T10:22:42;12.50;70.40
41437;DHT22;27178;49.460;10.850;2023-04-15T10:25:14;12.50;70.30
41437;DHT22;27178;49.460;10.850;2023-04-15T10:27:43;12.50;70.20
41437;DHT22;27178;49.460;10.850;2023-04-15T10:30:14;12.50;70.10
41437;DHT22;27178;49.460;10.850;2023-04-15T10:32:44;12.50;69.90
41437;DHT22;27178;49.460;10.850;2023-04-15T10:35:13;12.50;69.80
41437;DHT22;27178;49.460;10.850;2023-04-15T10:37:42;12.50;69.80
41437;DHT22;27178;49.460;10.850;2023-04-15T10:40:27;12.50;69.80
41437;DHT22;27178;49.460;10.850;2023-04-15T10:42:59;12.40;69.80
41437;DHT22;27178;49.460;10.850;2023-04-15T10:45:33;12.40;70.10
41437;DHT22;27178;49.460;10.850;2023-04-15T10:48:05;12.40;70.20
41437;DHT22;27178;49.460;10.850;2023-04-15T10:50:36;12.40;70.30
41437;DHT22;27178;49.460;10.850;2023-04-15T10:53:05;12.40;70.30
41437;DHT22;27178;49.460;10.850;2023-04-15T10:55:37;12.40;70.30
41437;DHT22;27178;49.460;10.850;2023-04-15T10:58:05;12.40;70.50
41437;DHT22;27178;49.460;10.850;2023-04-15T11:00:38;12.40;70.50
41437;DHT22;27178;49.460;10.850;2023-04-15T11:03:07;12.40;70.50
41437;DHT22;27178;49.460;10.850;2023-04-15T11:05:48;12.40;71.10
41437;DHT22;27178;49.460;10.850;2023-04-15T11:08:16;12.40;70.50
41437;DHT22;27178;49.460;10.850;2023-04-15T11:10:53;12.40;71.40
41437;DHT22;27178;49.460;10.850;2023-04-15T11:13:26;12.40;70.30
41437;DHT22;27178;49.460;10.850;2023-04-15T11:16:00;12.50;70.30
41437;DHT22;27178;49.460;10.850;2023-04-15T11:18:31;12.40;70.30
41437;DHT22;27178;49.460;10.850;2023-04-15T11:21:01;12.50;70.30
41437;DHT22;27178;49.460;10.850;2023-04-15T11:23:33;12.50;70.30
41437;DHT22;27178;49.460;10.850;2023-04-15T11:26:03;12.50;70.20
41437;DHT22;27178;49.460;10.850;2023-04-15T11:28:36;12.50;70.20
41437;DHT22;27178;49.460;10.850;2023-04-15T11:31:08;12.50;70.10
41437;DHT22;27178;49.460;10.850;2023-04-15T11:33:45;12.50;70.10
41437;DHT22;27178;49.460;10.850;2023-04-15T11:36:15;12.50;69.90
41437;DHT22;27178;49.460;10.850;2023-04-15T11:38:45;12.50;69.80
41437;DHT22;27178;49.460;10.850;2023-04-15T11:41:14;12.50;69.80
41437;DHT22;27178;49.460;10.850;2023-04-15T11:43:42;12.50;69.80
41437;DHT22;27178;49.460;10.850;2023-04-15T11:46:12;12.50;69.90
41437;DHT22;27178;49.460;10.850;2023-04-15T11:48:42;12.50;70.00
41437;DHT22;27178;49.460;10.850;2023-04-15T11:51:12;12.50;70.10
41437;DHT22;27178;49.460;10.850;2023-04-15T11:53:42;12.50;70.30
41437;DHT22;27178;49.460;10.850;2023-04-15T11:56:16;12.50;70.30
41437;DHT22;27178;49.460;10.850;2023-04-15T11:58:45;12.50;70.30
41437;DHT22;27178;49.460;10.850;2023-04-15T12:01:14;12.60;70.20
41437;DHT22;27178;49.460;10.850;2023-04-15T12:03:44;12.60;70.10
41437;DHT22;27178;49.460;10.850;2023-04-15T12:06:15;12.60;70.10
41437;DHT22;27178;49.460;10.850;2023-04-15T12:08:55;12.60;70.00
41437;DHT22;27178;49.460;10.850;2023-04-15T12:11:42;12.60;69.80
41437;DHT22;27178;49.460;10.850;2023-04-15T12:14:23;12.60;69.80
41437;DHT22;27178;49.460;10.850;2023-04-15T12:16:56;12.60;69.80
41437;DHT22;27178;49.460;10.850;2023-04-15T12:19:27;12.60;69.90
41437;DHT22;27178;49.460;10.850;2023-04-15T12:22:00;12.60;69.90
41437;DHT22;27178;49.460;10.850;2023-04-15T12:24:31;12.60;70.00
41437;DHT22;27178;49.460;10.850;2023-04-15T12:27:02;12.60;70.10
41437;DHT22;27178;49.460;10.850;2023-04-15T12:29:32;12.60;70.10
41437;DHT22;27178;49.460;10.850;2023-04-15T12:32:06;12.60;70.10
41437;DHT22;27178;49.460;10.850;2023-04-15T12:34:36;12.70;70.10
41437;DHT22;27178;49.460;10.850;2023-04-15T12:37:06;12.70;70.10
41437;DHT22;27178;49.460;10.850;2023-04-15T12:39:36;12.70;70.30
41437;DHT22;27178;49.460;10.850;2023-04-15T12:42:05;12.70;70.10
41437;DHT22;27178;49.460;10.850;2023-04-15T12:44:34;12.70;70.10
41437;DHT22;27178;49.460;10.850;2023-04-15T12:47:06;12.70;70.10
41437;DHT22;27178;49.460;10.850;2023-04-15T12:49:34;12.70;70.10
41437;DHT22;27178;49.460;10.850;2023-04-15T12:52:04;12.70;70.00
41437;DHT22;27178;49.460;10.850;2023-04-15T12:54:32;12.70;70.10
41437;DHT22;27178;49.460;10.850;2023-04-15T12:57:02;12.70;70.10
41437;DHT22;27178;49.460;10.850;2023-04-15T12:59:33;12.60;70.00
41437;DHT22;27178;49.460;10.850;2023-04-15T13:02:02;12.70;70.10
41437;DHT22;27178;49.460;10.850;2023-04-15T13:04:32;12.70;70.20
41437;DHT22;27178;49.460;10.850;2023-04-15T13:07:01;12.60;70.10
41437;DHT22;27178;49.460;10.850;2023-04-15T13:09:29;12.60;70.30
41437;DHT22;27178;49.460;10.850;2023-04-15T13:12:00;12.70;70.40
41437;DHT22;27178;49.460;10.850;2023-04-15T13:14:28;12.70;70.50
41437;DHT22;27178;49.460;10.850;2023-04-15T13:16:56;12.70;70.50
41437;DHT22;27178;49.460;10.850;2023-04-15T13:19:25;12.70;70.40
41437;DHT22;27178;49.460;10.850;2023-04-15T13:21:55;12.70;70.30
41437;DHT22;27178;49.460;10.850;2023-04-15T13:24:23;12.70;70.30
41437;DHT22;27178;49.460;10.850;2023-04-15T13:26:53;12.70;70.20
41437;DHT22;27178;49.460;10.850;2023-04-15T13:29:21;12.70;70.20
41437;DHT22;27178;49.460;10.850;2023-04-15T13:31:50;12.70;70.20
41437;DHT22;27178;49.460;10.850;2023-04-15T13:34:18;12.70;70.30
41437;DHT22;27178;49.460;10.850;2023-04-15T13:36:46;12.70;70.40
41437;DHT22;27178;49.460;10.850;2023-04-15T13:39:16;12.70;70.40
41437;DHT22;27178;49.460;10.850;2023-04-15T13:41:44;12.70;70.50
41437;DHT22;27178;49.460;10.850;2023-04-15T13:44:14;12.70;70.60
41437;DHT22;27178;49.460;10.850;2023-04-15T13:46:42;12.70;70.60
41437;DHT22;27178;49.460;10.850;2023-04-15T13:49:10;12.70;70.70
41437;DHT22;27178;49.460;10.850;2023-04-15T13:51:39;12.60;70.70
41437;DHT22;27178;49.460;10.850;2023-04-15T13:54:08;12.60;70.90
41437;DHT22;27178;49.460;10.850;2023-04-15T13:56:38;12.60;70.90
41437;DHT22;27178;49.460;10.850;2023-04-15T13:59:06;12.60;70.80
41437;DHT22;27178;49.460;10.850;2023-04-15T14:01:35;12.60;70.70
41437;DHT22;27178;49.460;10.850;2023-04-15T14:04:03;12.60;70.70
41437;DHT22;27178;49.460;10.850;2023-04-15T14:06:32;12.60;70.80
41437;DHT22;27178;49.460;10.850;2023-04-15T14:09:00;12.50;70.80
41437;DHT22;27178;49.460;10.850;2023-04-15T14:11:30;12.60;70.90
41437;DHT22;27178;49.460;10.850;2023-04-15T14:13:59;12.50;70.80
41437;DHT22;27178;49.460;10.850;2023-04-15T14:16:28;12.50;70.90
41437;DHT22;27178;49.460;10.850;2023-04-15T14:18:56;12.50;70.90
41437;DHT22;27178;49.460;10.850;2023-04-15T14:21:24;12.50;71.10
41437;DHT22;27178;49.460;10.850;2023-04-15T14:23:54;12.50;71.10
41437;DHT22;27178;49.460;10.850;2023-04-15T14:26:23;12.40;71.20
41437;DHT22;27178;49.460;10.850;2023-04-15T14:28:51;12.40;71.30
41437;DHT22;27178;49.460;10.850;2023-04-15T14:31:21;12.50;71.50
41437;DHT22;27178;49.460;10.850;2023-04-15T14:33:49;12.50;71.60
41437;DHT22;27178;49.460;10.850;2023-04-15T14:36:17;12.50;71.80
41437;DHT22;27178;49.460;10.850;2023-04-15T14:38:45;12.40;71.80
41437;DHT22;27178;49.460;10.850;2023-04-15T14:41:14;12.40;71.90
41437;DHT22;27178;49.460;10.850;2023-04-15T14:43:42;12.40;72.10
41437;DHT22;27178;49.460;10.850;2023-04-15T14:46:11;12.50;72.20
41437;DHT22;27178;49.460;10.850;2023-04-15T14:48:42;12.40;72.20
41437;DHT22;27178;49.460;10.850;2023-04-15T14:51:10;12.40;72.20
41437;DHT22;27178;49.460;10.850;2023-04-15T14:53:38;12.40;72.20
41437;DHT22;27178;49.460;10.850;2023-04-15T14:56:06;12.50;72.20
41437;DHT22;27178;49.460;10.850;2023-04-15T14:58:34;12.50;72.40
41437;DHT22;27178;49.460;10.850;2023-04-15T15:01:03;12.40;72.30
41437;DHT22;27178;49.460;10.850;2023-04-15T15:03:32;12.50;72.50
41437;DHT22;27178;49.460;10.850;2023-04-15T15:06:02;12.50;72.50
41437;DHT22;27178;49.460;10.850;2023-04-15T15:08:30;12.50;72.50
41437;DHT22;27178;49.460;10.850;2023-04-15T15:10:59;12.50;72.50
41437;DHT22;27178;49.460;10.850;2023-04-15T15:13:27;12.50;72.50
41437;DHT22;27178;49.460;10.850;2023-04-15T15:15:57;12.40;72.40
41437;DHT22;27178;49.460;10.850;2023-04-15T15:18:25;12.50;72.50
41437;DHT22;27178;49.460;10.850;2023-04-15T15:20:53;12.50;72.40
41437;DHT22;27178;49.460;10.850;2023-04-15T15:23:23;12.40;72.50
41437;DHT22;27178;49.460;10.850;2023-04-15T15:25:51;12.40;72.70
41437;DHT22;27178;49.460;10.850;2023-04-15T15:28:19;12.40;72.80